createdAt,value
2022-08-11T00:00:59.194Z,13.6
2022-08-11T00:03:27.486Z,13.6
2022-08-11T00:05:55.741Z,13.6
2022-08-11T00:08:23.971Z,13.7
2022-08-11T00:09:40.616Z,13.6
2022-08-11T00:10:52.264Z,13.3
2022-08-11T00:13:20.514Z,13.4
2022-08-11T00:15:48.737Z,13.2
2022-08-11T00:18:17.033Z,13.5
2022-08-11T00:20:45.292Z,13.2
2022-08-11T00:23:13.570Z,13.4
2022-08-11T00:25:41.802Z,13.6
2022-08-11T00:28:10.013Z,13.5
2022-08-11T00:30:38.291Z,13.3
2022-08-11T00:33:06.548Z,13.2
2022-08-11T00:34:23.267Z,13.5
2022-08-11T00:35:34.821Z,13.5
2022-08-11T00:38:03.092Z,13.6
2022-08-11T00:40:31.333Z,13.7
2022-08-11T00:42:59.629Z,13.6
2022-08-11T00:47:56.159Z,13.3
2022-08-11T00:50:24.415Z,13.5
2022-08-11T00:52:52.615Z,13.7
2022-08-11T00:55:20.880Z,13.7
2022-08-11T00:57:49.201Z,13.3
2022-08-11T00:59:05.814Z,13.5
2022-08-11T01:00:17.430Z,13.8
2022-08-11T01:02:45.695Z,14.1
2022-08-11T01:05:13.949Z,13.2
2022-08-11T01:07:42.252Z,13.3
2022-08-11T01:10:10.505Z,13.1
2022-08-11T01:12:38.745Z,13.3
2022-08-11T01:15:06.971Z,13.1
2022-08-11T01:17:35.276Z,12.9
2022-08-11T01:20:03.465Z,13.1
2022-08-11T01:23:48.437Z,13
2022-08-11T01:25:00.032Z,13.1
2022-08-11T01:27:28.311Z,13.2
2022-08-11T01:32:24.817Z,13.2
2022-08-11T01:34:53.057Z,12.9
2022-08-11T01:37:21.342Z,13.2
2022-08-11T01:39:49.574Z,12.9
2022-08-11T01:42:17.814Z,12.9
2022-08-11T01:47:14.368Z,13.2
2022-08-11T01:48:31.021Z,13.2
2022-08-11T01:49:42.597Z,12.8
2022-08-11T01:52:10.904Z,13
2022-08-11T01:54:39.195Z,13
2022-08-11T01:57:07.425Z,13.1
2022-08-11T01:59:35.693Z,13.1
2022-08-11T02:02:03.899Z,12.9
2022-08-11T02:04:32.149Z,16.3
2022-08-11T02:07:00.448Z,13
2022-08-11T02:09:28.721Z,12.9
2022-08-11T02:11:56.923Z,13.2
2022-08-11T02:13:13.655Z,13.1
2022-08-11T02:14:25.216Z,13.2
2022-08-11T02:16:53.500Z,13.1
2022-08-11T02:19:21.750Z,16.4
2022-08-11T02:21:49.997Z,12.6
2022-08-11T02:24:18.252Z,12.8
2022-08-11T02:26:46.514Z,12.9
2022-08-11T02:29:14.796Z,13.2
2022-08-11T02:31:43.056Z,13.3
2022-08-11T02:34:11.259Z,13.3
2022-08-11T02:36:39.576Z,13.3
2022-08-11T02:37:56.219Z,12.7
2022-08-11T02:39:07.857Z,13.2
2022-08-11T02:41:36.072Z,13.3
2022-08-11T02:46:32.628Z,13.2
2022-08-11T02:49:00.867Z,13.4
2022-08-11T02:51:29.135Z,13.5
2022-08-11T02:53:57.365Z,13.3
2022-08-11T02:56:25.658Z,13.4
2022-08-11T02:58:53.888Z,13
2022-08-11T03:01:22.191Z,13.3
2022-08-11T03:02:38.853Z,14.4
2022-08-11T03:03:50.386Z,13.6
2022-08-11T03:06:18.679Z,13.6
2022-08-11T03:08:46.931Z,13.5
2022-08-11T03:11:15.200Z,14
2022-08-11T03:13:43.477Z,13.7
2022-08-11T03:16:11.704Z,14.2
2022-08-11T03:18:39.945Z,13.1
2022-08-11T03:21:08.237Z,13.3
2022-08-11T03:23:36.524Z,12.8
2022-08-11T03:26:04.738Z,14
2022-08-11T03:27:21.400Z,13.6
2022-08-11T03:28:33.057Z,14.1
2022-08-11T03:31:01.311Z,13.9
2022-08-11T03:33:29.500Z,13.3
2022-08-11T03:35:57.755Z,14.1
2022-08-11T03:38:26.074Z,12.4
2022-08-11T03:40:54.275Z,13.9
2022-08-11T03:45:50.801Z,13.5
2022-08-11T03:48:19.073Z,13.9
2022-08-11T03:50:47.360Z,14.4
2022-08-11T03:53:15.609Z,14
2022-08-11T03:55:43.860Z,14
2022-08-11T03:58:12.104Z,13.7
2022-08-11T04:00:40.376Z,14.6
2022-08-11T04:03:08.630Z,13.2
2022-08-11T04:10:33.424Z,13.4
2022-08-11T04:13:01.643Z,13.4
2022-08-11T04:15:29.963Z,13.1
2022-08-11T04:16:46.577Z,12.9
2022-08-11T04:17:58.199Z,13.6
2022-08-11T04:20:26.430Z,13.4
2022-08-11T04:25:22.942Z,13.7
2022-08-11T04:27:51.257Z,13.6
2022-08-11T04:30:19.459Z,13.4
2022-08-11T04:32:47.719Z,13.5
2022-08-11T04:35:15.974Z,13
2022-08-11T04:37:44.279Z,13.4
2022-08-11T04:40:12.559Z,13.1
2022-08-11T04:41:29.183Z,13.5
2022-08-11T04:45:09.055Z,13.8
2022-08-11T04:47:37.318Z,14.3
2022-08-11T04:50:05.535Z,14.3
2022-08-11T04:55:02.081Z,14.3
2022-08-11T04:57:30.349Z,14.2
2022-08-11T04:59:58.635Z,14
2022-08-11T05:02:26.880Z,13.3
2022-08-11T05:04:55.092Z,13.8
2022-08-11T05:09:51.681Z,13.7
2022-08-11T05:12:19.919Z,14.3
2022-08-11T05:17:16.436Z,14.1
2022-08-11T05:19:44.686Z,14.1
2022-08-11T05:24:41.200Z,14.1
2022-08-11T05:27:09.431Z,14.2
2022-08-11T05:29:37.715Z,13.9
2022-08-11T05:30:54.410Z,14.1
2022-08-11T05:32:05.976Z,14
2022-08-11T05:34:34.253Z,14
2022-08-11T05:37:02.529Z,13.7
2022-08-11T05:39:30.776Z,14.3
2022-08-11T05:44:27.307Z,14.1
2022-08-11T05:46:55.517Z,14.2
2022-08-11T05:49:23.777Z,13.2
2022-08-11T05:54:20.327Z,13.6
2022-08-11T06:01:45.097Z,14.8
2022-08-11T06:04:13.331Z,14.5
2022-08-11T06:09:09.858Z,13.4
2022-08-11T06:11:38.152Z,14.9
2022-08-11T06:14:06.374Z,14.9
2022-08-11T06:16:34.632Z,14.9
2022-08-11T06:19:02.874Z,14.5
2022-08-11T06:20:19.604Z,13.9
2022-08-11T06:23:59.423Z,14.2
2022-08-11T06:26:27.683Z,14.5
2022-08-11T06:31:24.215Z,14
2022-08-11T06:33:52.467Z,14
2022-08-11T06:38:49.011Z,14.2
2022-08-11T06:41:17.281Z,14.4
2022-08-11T06:43:45.488Z,14.2
2022-08-11T06:45:02.164Z,15
2022-08-11T06:46:13.819Z,14.4
2022-08-11T06:48:42.015Z,15.2
2022-08-11T06:51:10.281Z,15.6
2022-08-11T06:53:38.529Z,13.9
2022-08-11T07:01:03.326Z,14.8
2022-08-11T07:03:31.599Z,14.5
2022-08-11T07:08:28.138Z,15.2
2022-08-11T07:09:44.784Z,15.2
2022-08-11T07:13:24.648Z,15.4
2022-08-11T07:15:52.891Z,15.2
2022-08-11T07:18:21.178Z,15.2
2022-08-11T07:20:49.398Z,15.2
2022-08-11T07:23:17.680Z,15.6
2022-08-11T07:25:45.949Z,15.4
2022-08-11T07:30:42.456Z,15.2
2022-08-11T07:34:27.395Z,15.5
2022-08-11T07:38:07.219Z,14.5
2022-08-11T07:40:35.470Z,15.5
2022-08-11T07:43:03.726Z,14.8
2022-08-11T07:48:00.225Z,15.3
2022-08-11T07:50:28.518Z,15.8
2022-08-11T07:52:56.751Z,14.5
2022-08-11T07:55:25.052Z,15.3
2022-08-11T08:00:21.594Z,14.5
2022-08-11T08:02:49.826Z,15.5
2022-08-11T08:05:18.104Z,15.3
2022-08-11T08:07:46.331Z,15.5
2022-08-11T08:10:14.631Z,15.5
2022-08-11T08:12:42.863Z,15.4
2022-08-11T08:17:39.404Z,14.4
2022-08-11T08:20:07.626Z,14.6
2022-08-11T08:22:35.903Z,15.1
2022-08-11T08:23:52.522Z,14.5
2022-08-11T08:30:00.717Z,14.6
2022-08-11T08:34:57.230Z,14.8
2022-08-11T08:37:25.454Z,15.6
2022-08-11T08:39:53.743Z,14.8
2022-08-11T08:44:50.234Z,14.3
2022-08-11T08:47:18.455Z,15.3
2022-08-11T08:48:35.172Z,14.9
2022-08-11T08:49:46.740Z,14.1
2022-08-11T08:52:14.999Z,15.1
2022-08-11T08:54:43.313Z,14.6
2022-08-11T08:59:39.802Z,14.7
2022-08-11T09:02:08.017Z,13.9
2022-08-11T09:07:04.556Z,14.5
2022-08-11T09:09:32.849Z,15.3
2022-08-11T09:13:17.734Z,15.1
2022-08-11T09:14:29.366Z,15.3
2022-08-11T09:16:57.658Z,14.8
2022-08-11T09:21:54.109Z,15.3
2022-08-11T09:26:50.684Z,14.6
2022-08-11T09:29:18.918Z,15.1
2022-08-11T09:38:00.345Z,14.7
2022-08-11T09:39:11.942Z,14.8
2022-08-11T09:44:08.436Z,14.7
2022-08-11T09:46:36.732Z,14.3
2022-08-11T09:49:04.997Z,13.9
2022-08-11T09:51:33.269Z,14.5
2022-08-11T09:54:01.497Z,14.9
2022-08-11T09:56:29.729Z,14.8
2022-08-11T09:58:58.015Z,15
2022-08-11T10:03:54.566Z,14.4
2022-08-11T10:06:22.790Z,15.4
2022-08-11T10:08:51.058Z,15.4
2022-08-11T10:11:19.360Z,15.1
2022-08-11T10:13:47.546Z,14.7
2022-08-11T10:16:15.844Z,14.9
2022-08-11T10:18:44.089Z,15
2022-08-11T10:21:12.354Z,14.9
2022-08-11T10:26:08.865Z,15.5
2022-08-11T10:27:25.522Z,15.5
2022-08-11T10:28:37.117Z,15.1
2022-08-11T10:31:05.358Z,15.3
2022-08-11T10:33:33.667Z,15.3
2022-08-11T10:36:01.869Z,15.5
2022-08-11T10:38:30.125Z,15.5
2022-08-11T10:43:26.681Z,16
2022-08-11T10:45:54.934Z,16.4
2022-08-11T10:48:23.163Z,16.4
2022-08-11T10:50:51.481Z,17.1
2022-08-11T10:52:08.117Z,17.3
2022-08-11T10:58:16.236Z,18.9
2022-08-11T11:00:44.490Z,19.5
2022-08-11T11:03:12.756Z,20.9
2022-08-11T11:05:41.025Z,21.2
2022-08-11T11:08:09.285Z,21.9
2022-08-11T11:13:05.835Z,24.8
2022-08-11T11:16:50.755Z,26.8
2022-08-11T11:18:02.336Z,26.7
2022-08-11T11:20:30.581Z,28.1
2022-08-11T11:22:58.882Z,28.2
2022-08-11T11:25:27.112Z,29.5
2022-08-11T11:27:55.353Z,29.3
2022-08-11T11:30:23.682Z,30.6
2022-08-11T11:32:51.888Z,31.4
2022-08-11T11:35:20.146Z,33.5
2022-08-11T11:37:48.420Z,33
2022-08-11T11:40:16.656Z,33.4
2022-08-11T11:41:33.371Z,34.9
2022-08-11T11:42:44.982Z,35.3
2022-08-11T11:45:13.185Z,38.5
2022-08-11T11:47:41.479Z,37.1
2022-08-11T11:50:09.743Z,38.1
2022-08-11T11:57:34.523Z,37.7
2022-08-11T12:00:02.751Z,36.5
2022-08-11T12:02:31.022Z,36.7
2022-08-11T12:04:59.274Z,35.7
2022-08-11T12:07:27.583Z,31.6
2022-08-11T12:09:55.840Z,30
2022-08-11T12:12:24.096Z,29.1
2022-08-11T12:14:52.309Z,28.2
2022-08-11T12:17:20.600Z,27
2022-08-11T12:19:48.851Z,26.6
2022-08-11T12:22:17.154Z,23.6
2022-08-11T12:24:45.381Z,21.9
2022-08-11T12:27:13.673Z,21.7
2022-08-11T12:29:41.928Z,19.9
2022-08-11T12:30:58.588Z,18.6
2022-08-11T12:34:38.453Z,18.2
2022-08-11T12:37:06.715Z,17.6
2022-08-11T12:39:34.954Z,17.5
2022-08-11T12:42:03.231Z,17.1
2022-08-11T12:44:31.478Z,17.2
2022-08-11T12:51:56.224Z,16.8
2022-08-11T12:54:24.533Z,15.6
2022-08-11T12:55:41.161Z,16.6
2022-08-11T12:56:52.811Z,15.9
2022-08-11T12:59:21.007Z,16.3
2022-08-11T13:04:17.581Z,18.8
2022-08-11T13:06:45.785Z,15.8
2022-08-11T13:11:42.313Z,16.5
2022-08-11T13:14:10.625Z,16.5
2022-08-11T13:19:07.141Z,16.5
2022-08-11T13:20:23.759Z,15.4
2022-08-11T13:21:35.381Z,14.4
2022-08-11T13:24:03.626Z,14.9
2022-08-11T13:26:31.890Z,15
2022-08-11T13:29:00.182Z,14.9
2022-08-11T13:31:28.464Z,15.3
2022-08-11T13:33:56.673Z,14.4
2022-08-11T13:38:53.185Z,14.4
2022-08-11T13:41:21.448Z,14.5
2022-08-11T13:46:18.023Z,14.6
2022-08-11T13:48:46.229Z,14.2
2022-08-11T13:51:14.499Z,15
2022-08-11T13:53:42.766Z,15
2022-08-11T13:56:11.010Z,15.1
2022-08-11T13:58:39.322Z,14.4
2022-08-11T14:03:35.824Z,14.3
2022-08-11T14:06:04.090Z,13.9
2022-08-11T14:08:32.338Z,13.1
2022-08-11T14:11:00.596Z,14.3
2022-08-11T14:15:57.131Z,13.6
2022-08-11T14:18:25.372Z,14.9
2022-08-11T14:20:53.653Z,13.8
2022-08-11T14:23:21.885Z,14.8
2022-08-11T14:30:46.624Z,14.7
2022-08-11T14:33:14.925Z,14.9
2022-08-11T14:34:31.578Z,14.7
2022-08-11T14:38:11.465Z,14.9
2022-08-11T14:40:39.699Z,14.7
2022-08-11T14:45:36.220Z,14.2
2022-08-11T14:48:04.517Z,15.3
2022-08-11T14:50:32.731Z,15.3
2022-08-11T14:53:00.989Z,15
2022-08-11T14:57:57.548Z,14.7
2022-08-11T14:59:14.221Z,14.9
2022-08-11T15:02:54.034Z,15.9
2022-08-11T15:05:22.323Z,14.8
2022-08-11T15:07:50.587Z,15.2
2022-08-11T15:10:18.849Z,14.5
2022-08-11T15:17:43.615Z,14.6
2022-08-11T15:20:11.880Z,14.2
2022-08-11T15:23:56.767Z,14.4
2022-08-11T15:25:08.406Z,14.4
2022-08-11T15:32:33.174Z,14.2
2022-08-11T15:35:01.431Z,15
2022-08-11T15:37:29.683Z,14.3
2022-08-11T15:39:57.937Z,14.8
2022-08-11T15:47:22.732Z,14.1
2022-08-11T15:48:39.345Z,14
2022-08-11T15:49:50.989Z,14.9
2022-08-11T15:54:47.482Z,14.6
2022-08-11T15:57:15.775Z,14.4
2022-08-11T16:02:12.241Z,13.5
2022-08-11T16:04:40.531Z,15
2022-08-11T16:07:08.787Z,14
2022-08-11T16:09:37.014Z,13.5
2022-08-11T16:12:05.281Z,14.1
2022-08-11T16:14:33.612Z,14.8
2022-08-11T16:17:01.850Z,14.4
2022-08-11T16:19:30.088Z,13.8
2022-08-11T16:21:58.350Z,13.9
2022-08-11T16:24:26.580Z,14.6
2022-08-11T16:26:54.845Z,15.1
2022-08-11T16:29:23.158Z,15
2022-08-11T16:31:51.390Z,14.9
2022-08-11T16:34:19.675Z,14.3
2022-08-11T16:36:47.881Z,14.6
2022-08-11T16:38:04.539Z,14.1
2022-08-11T16:39:16.207Z,13.2
2022-08-11T16:41:44.471Z,13
2022-08-11T16:44:12.699Z,14.4
2022-08-11T16:46:40.977Z,14.6
2022-08-11T16:49:09.181Z,14.2
2022-08-11T16:51:37.476Z,13.4
2022-08-11T16:54:05.705Z,14.5
2022-08-11T16:56:33.944Z,13.7
2022-08-11T17:01:30.459Z,13.5
2022-08-11T17:02:47.131Z,13.2
2022-08-11T17:03:58.779Z,12.9
2022-08-11T17:06:27.006Z,13.4
2022-08-11T17:08:55.260Z,13
2022-08-11T17:16:20.042Z,13.9
2022-08-11T17:18:48.343Z,14
2022-08-11T17:21:16.538Z,13.7
2022-08-11T17:23:44.854Z,13.5
2022-08-11T17:27:29.772Z,12.8
2022-08-11T17:31:09.611Z,13.2
2022-08-11T17:33:37.851Z,13.3
2022-08-11T17:36:06.138Z,13.1
2022-08-11T17:38:34.401Z,13.4
2022-08-11T17:41:02.659Z,13.4
2022-08-11T17:43:30.898Z,13.5
2022-08-11T17:48:27.439Z,13.1
2022-08-11T17:52:12.368Z,14.8
2022-08-11T17:53:23.941Z,13.9
2022-08-11T17:55:52.231Z,15
2022-08-11T18:00:48.682Z,14.2
2022-08-11T18:03:16.975Z,15.2
2022-08-11T18:05:45.266Z,14.8
2022-08-11T18:08:13.454Z,14.9
2022-08-11T18:10:41.727Z,14.5
2022-08-11T18:13:09.975Z,14.2
2022-08-11T18:15:38.236Z,14.1
2022-08-11T18:18:06.551Z,14.4
2022-08-11T18:23:03.026Z,15
2022-08-11T18:27:59.529Z,14.9
2022-08-11T18:32:56.102Z,14.4
2022-08-11T18:35:24.319Z,14.1
2022-08-11T18:37:52.607Z,14.3
2022-08-11T18:40:20.867Z,14.1
2022-08-11T18:41:37.517Z,14.4
2022-08-11T18:42:49.157Z,14.7
2022-08-11T18:45:17.369Z,14.7
2022-08-11T18:47:45.670Z,14.8
2022-08-11T18:50:13.890Z,14.4
2022-08-11T18:57:38.686Z,14.2
2022-08-11T19:00:06.906Z,14.1
2022-08-11T19:02:35.159Z,12.8
2022-08-11T19:05:03.413Z,14.6
2022-08-11T19:06:20.075Z,13.7
2022-08-11T19:07:31.736Z,14.5
2022-08-11T19:09:59.987Z,14.2
2022-08-11T19:12:28.219Z,14.6
2022-08-11T19:14:56.469Z,14.6
2022-08-11T19:17:24.713Z,15.4
2022-08-11T19:22:21.217Z,15.2
2022-08-11T19:24:49.500Z,14.9
2022-08-11T19:27:17.768Z,14.7
2022-08-11T19:29:45.989Z,14
2022-08-11T19:31:02.700Z,14.8
2022-08-11T19:32:14.276Z,15.3
2022-08-11T19:37:10.771Z,15.9
2022-08-11T19:39:39.027Z,14.1
2022-08-11T19:42:07.289Z,15
2022-08-11T19:44:35.579Z,14.2
2022-08-11T19:49:32.105Z,16.9
2022-08-11T19:52:00.369Z,14.9
2022-08-11T19:54:28.600Z,14.9
2022-08-11T19:55:45.299Z,14.6
2022-08-11T19:56:56.902Z,14.7
2022-08-11T19:59:25.112Z,14.1
2022-08-11T20:01:53.368Z,14.6
2022-08-11T20:06:49.902Z,14.4
2022-08-11T20:11:46.446Z,14.8
2022-08-11T20:14:14.652Z,13.6
2022-08-11T20:16:42.951Z,14
2022-08-11T20:19:11.225Z,14.4
2022-08-11T20:21:39.438Z,14.7
2022-08-11T20:24:07.704Z,14.6
2022-08-11T20:29:04.214Z,14.1
2022-08-11T20:31:32.523Z,14.6
2022-08-11T20:36:29.044Z,14.4
2022-08-11T20:38:57.276Z,17.3
2022-08-11T20:43:53.800Z,14.8
2022-08-11T20:45:10.434Z,14.8
2022-08-11T20:51:18.593Z,15.6
2022-08-11T20:53:46.836Z,14.2
2022-08-11T20:56:15.088Z,14.6
2022-08-11T20:58:43.325Z,14.3
2022-08-11T21:06:08.082Z,14.4
2022-08-11T21:08:36.338Z,14.7
2022-08-11T21:09:53.005Z,14.8
2022-08-11T21:11:04.603Z,15.1
2022-08-11T21:13:32.891Z,14
2022-08-11T21:18:29.428Z,14.3
2022-08-11T21:23:25.944Z,14.8
2022-08-11T21:25:54.216Z,14.7
2022-08-11T21:28:22.442Z,14.7
2022-08-11T21:30:50.706Z,14.3
2022-08-11T21:33:18.985Z,14.6
2022-08-11T21:34:35.596Z,15.2
2022-08-11T21:35:47.192Z,14.9
2022-08-11T21:38:15.470Z,14.1
2022-08-11T21:40:43.754Z,13.7
2022-08-11T21:43:12.020Z,15
2022-08-11T21:45:40.272Z,15
2022-08-11T21:48:08.555Z,14.8
2022-08-11T21:55:33.310Z,14.7
2022-08-11T21:58:01.541Z,14.5
2022-08-11T21:59:18.238Z,15.1
2022-08-11T22:00:29.791Z,14.9
2022-08-11T22:05:26.313Z,14.1
2022-08-11T22:07:54.564Z,14.4
2022-08-11T22:10:22.871Z,14.4
2022-08-11T22:12:51.105Z,14.3
2022-08-11T22:15:19.355Z,14.7
2022-08-11T22:20:15.875Z,13
2022-08-11T22:25:12.452Z,14.3
2022-08-11T22:27:40.685Z,14.5
2022-08-11T22:30:08.921Z,14.5
2022-08-11T22:35:05.451Z,14
2022-08-11T22:37:33.728Z,15
2022-08-11T22:40:01.992Z,14.3
2022-08-11T22:42:30.196Z,14.7
2022-08-11T22:44:58.446Z,14.5
2022-08-11T22:48:43.428Z,14.6
2022-08-11T22:49:55.000Z,14.6
2022-08-11T22:52:23.224Z,14.6
2022-08-11T22:54:51.513Z,14.7
2022-08-11T22:57:19.808Z,14.6
2022-08-11T22:59:48.023Z,14.6
2022-08-11T23:04:44.620Z,15.9
2022-08-11T23:09:41.091Z,15
2022-08-11T23:12:09.288Z,14.2
2022-08-11T23:13:25.994Z,13.9
2022-08-11T23:14:37.590Z,14.6
2022-08-11T23:17:05.845Z,14.4
2022-08-11T23:19:34.120Z,14.7
2022-08-11T23:22:02.395Z,14.6
2022-08-11T23:24:30.609Z,14.7
2022-08-11T23:26:58.885Z,13.7
2022-08-11T23:29:27.119Z,14.6
2022-08-11T23:31:55.379Z,14.7
2022-08-11T23:34:23.683Z,14.7
2022-08-11T23:36:51.915Z,13.5
2022-08-11T23:38:08.561Z,14.8
2022-08-11T23:41:48.452Z,14.5
2022-08-11T23:46:44.950Z,14.6
2022-08-11T23:49:13.201Z,14.3
2022-08-11T23:54:09.785Z,14.1
2022-08-11T23:56:38.012Z,14.3
